Portada
METAR-TAF:

METAR-TAF

Aeroports :

Còrdova, Espanya

latitud: 37-51N, longitud: 004-51W, altitud: 90 m

Observació

L'informe es va fer fa 14 minuts, a les 14:30 UTC
Vent 6 kt del Est/Nord-Est, variant entre Nord/Nord-Oest i Est/Sud-Est
Temperatura 20°C
Humitat 43%
Pressió 1013 hPa
Visibilitat 10 km o més
Núvols disperses a una alçada de 3500 ft, Cumulus congestus.

METAR: LEBA 191430Z 06006KT 330V110 9999 SCT035TCU 20/07 Q1013

Hora: 16:44 (14:44 UTC)

Pronòstic

L'informe es va fer fa 44 minuts, a les 14:00 UTC
Pronòstic vàlid del 19 a les 15 UTC al 19 a les 24 UTC
Vent 5 kt del Oest/Nord-Oest
Visibilitat 10 km o més
Escasses núvols a una alçada de 2500 ft
Núvols disperses a una alçada de 4000 ft
Probabilitat 40% :
Temporalment
l' 19 a les 15 UTC al 19 a les 19 UTC
Visibilitat: 4000 m
Núvols disperses a una alçada de 2000 ft, Cumulonimbus.
Cel ennuvolat a una alçada de 3500 ft
xàfecs de pluja

TAF: LEBA 191400Z 1915/1924 30005KT 9999 FEW025 SCT040 PROB40 TEMPO 1915/1919 4000 SHRA SCT020CB BKN035

Observacions i pronòstics meteorològics de més de 4000 aeroports (METAR i TAF).

Les estacions disponibles són els punts grocs i vermells al mapa.

Posi el ratolí al punt desitjat per veure el nom de l'estació.

Feu clic per veure les observacions i els pronòstics meteorològics.

Per canviar el mapa: feu clic els botons verds amb una creu de color negre per apropar; al botó verd amb un guió per allunyar la imatge; o en les fletxes verdes per a mapes adjacents.


METAR-TAF: